Time;durP1;ratioP1;P1;durP2;ratioP2;P2;SDS_P1;SDS_P2;PMS_P1;PMS_P2;Temp;Humidity;BMP_temperature;BMP_pressure;BME280_temperature;BME280_humidity;BME280_pressure;Samples;Min_cycle;Max_cycle;Signal;HPM_P1;HPM_P2
2024/02/18 00:02:03;;;;;;;44.83;26.10;;;10.10;99.90;;;;;;5103274;28;20032;-79
2024/02/18 00:04:32;;;;;;;47.60;26.73;;;10.20;99.90;;;;;;5099500;28;20036;-79
2024/02/18 00:06:59;;;;;;;43.05;25.70;;;10.10;99.90;;;;;;5104542;28;20097;-79
2024/02/18 00:09:24;;;;;;;44.85;25.50;;;10.00;99.90;;;;;;5106333;28;20036;-79
2024/02/18 00:11:50;;;;;;;44.85;26.20;;;10.00;99.90;;;;;;5105183;28;20039;-79
2024/02/18 00:14:16;;;;;;;45.47;25.48;;;10.10;99.90;;;;;;5105046;28;20032;-79
2024/02/18 00:16:41;;;;;;;45.08;25.83;;;10.10;99.90;;;;;;5104690;28;20032;-79
2024/02/18 00:19:08;;;;;;;47.83;28.45;;;10.10;99.90;;;;;;5087370;28;20040;-80
2024/02/18 00:21:34;;;;;;;44.92;26.08;;;10.20;99.90;;;;;;5109577;28;20111;-80
2024/02/18 00:24:00;;;;;;;46.38;27.40;;;10.10;99.90;;;;;;5105244;28;20063;-79
2024/02/18 00:26:27;;;;;;;42.40;25.30;;;10.10;99.90;;;;;;5110775;28;20047;-79
2024/02/18 00:28:52;;;;;;;44.03;24.70;;;10.10;99.90;;;;;;5108446;28;20099;-80
2024/02/18 00:31:18;;;;;;;41.00;25.52;;;10.20;99.90;;;;;;5110840;28;20028;-80
2024/02/18 00:33:44;;;;;;;42.97;26.17;;;10.00;99.90;;;;;;5094573;28;20068;-80
2024/02/18 00:36:09;;;;;;;41.42;25.88;;;10.20;99.90;;;;;;5112472;28;20065;-80
2024/02/18 00:38:35;;;;;;;38.55;24.58;;;10.10;99.90;;;;;;5095140;28;20069;-80
2024/02/18 00:41:03;;;;;;;45.60;25.83;;;10.10;99.90;;;;;;5111703;28;20036;-80
2024/02/18 00:43:29;;;;;;;41.85;24.85;;;10.00;99.90;;;;;;5111628;28;20062;-79
2024/02/18 00:45:54;;;;;;;45.63;25.75;;;10.20;99.90;;;;;;5111633;28;20036;-80
2024/02/18 00:48:20;;;;;;;41.75;23.98;;;10.10;99.90;;;;;;5093739;28;20048;-80
2024/02/18 00:50:46;;;;;;;41.22;24.17;;;10.00;99.90;;;;;;5111326;28;20035;-80
2024/02/18 00:53:12;;;;;;;39.97;25.25;;;10.00;99.90;;;;;;5111806;28;20040;-80
2024/02/18 00:55:43;;;;;;;43.75;25.30;;;10.00;99.90;;;;;;5093214;28;20040;-80
2024/02/18 00:58:11;;;;;;;40.15;25.88;;;9.90;99.90;;;;;;5110212;28;20059;-80
2024/02/18 01:00:39;;;;;;;46.25;25.77;;;10.10;99.90;;;;;;5109558;28;20089;-80
2024/02/18 01:03:04;;;;;;;37.53;23.98;;;10.00;99.90;;;;;;5110912;28;20036;-80
2024/02/18 01:05:31;;;;;;;40.47;26.05;;;10.00;99.90;;;;;;5112128;28;20104;-80
2024/02/18 01:07:56;;;;;;;41.85;25.27;;;10.10;99.90;;;;;;5111285;28;20040;-80
2024/02/18 01:10:22;;;;;;;37.67;23.67;;;10.10;99.90;;;;;;5112374;28;20084;-80
2024/02/18 01:12:48;;;;;;;38.50;23.27;;;10.00;99.90;;;;;;5112613;28;20078;-80
2024/02/18 01:15:13;;;;;;;39.13;24.10;;;10.00;99.90;;;;;;5111715;28;20028;-80
2024/02/18 01:17:39;;;;;;;39.40;23.92;;;10.00;99.90;;;;;;5112210;28;20085;-80
2024/02/18 01:20:06;;;;;;;39.42;23.65;;;10.00;99.90;;;;;;5106469;28;20036;-79
2024/02/18 01:22:32;;;;;;;39.97;21.90;;;10.10;99.90;;;;;;5106523;28;20118;-79
2024/02/18 01:24:58;;;;;;;35.47;23.05;;;10.10;99.90;;;;;;5106081;28;20097;-79
2024/02/18 01:27:24;;;;;;;41.25;23.20;;;9.90;99.90;;;;;;5110496;28;20048;-80
2024/02/18 01:29:50;;;;;;;39.03;23.48;;;10.00;99.90;;;;;;5112998;28;20047;-80
2024/02/18 01:32:15;;;;;;;35.97;21.85;;;10.10;99.90;;;;;;5109194;28;20426;-80
2024/02/18 01:34:41;;;;;;;32.45;21.95;;;9.90;99.90;;;;;;5109995;28;20047;-80
2024/02/18 01:37:07;;;;;;;36.33;21.98;;;10.00;99.90;;;;;;5110658;28;20088;-80
2024/02/18 01:39:32;;;;;;;36.00;21.88;;;9.90;99.90;;;;;;5107928;28;20040;-79
2024/02/18 01:41:58;;;;;;;42.03;22.65;;;9.90;99.90;;;;;;5107122;28;20032;-80
2024/02/18 01:44:24;;;;;;;37.22;20.70;;;10.00;99.90;;;;;;5107919;28;20047;-80
2024/02/18 01:46:50;;;;;;;35.42;20.95;;;9.90;99.90;;;;;;5108849;28;20468;-80
2024/02/18 01:49:15;;;;;;;39.00;22.17;;;10.10;99.90;;;;;;5104563;28;20045;-79
2024/02/18 01:51:42;;;;;;;39.72;22.55;;;10.00;99.90;;;;;;5110438;28;20122;-79
2024/02/18 01:54:08;;;;;;;31.88;20.73;;;10.00;99.90;;;;;;5104901;28;20064;-80
2024/02/18 01:56:34;;;;;;;33.42;19.95;;;10.10;99.90;;;;;;5089108;28;20044;-80
2024/02/18 01:59:00;;;;;;;32.33;19.88;;;10.10;99.90;;;;;;5107606;28;20040;-80
2024/02/18 02:01:27;;;;;;;34.30;20.90;;;10.00;99.90;;;;;;5109356;28;20040;-80
2024/02/18 02:03:55;;;;;;;32.53;19.83;;;10.10;99.90;;;;;;5109413;28;20097;-79
2024/02/18 02:06:22;;;;;;;31.30;19.05;;;10.20;99.90;;;;;;5108992;28;20044;-79
2024/02/18 02:08:48;;;;;;;32.88;19.60;;;10.00;99.90;;;;;;5105761;28;20040;-79
2024/02/18 02:11:14;;;;;;;33.17;20.50;;;10.10;99.90;;;;;;5108963;28;20165;-79
2024/02/18 02:13:42;;;;;;;33.70;18.88;;;10.10;99.90;;;;;;5108017;28;20044;-79
2024/02/18 02:16:07;;;;;;;31.05;18.30;;;10.10;99.90;;;;;;5108493;28;20051;-79
2024/02/18 02:18:33;;;;;;;30.02;18.83;;;10.00;99.90;;;;;;5107088;28;20059;-79
2024/02/18 02:20:59;;;;;;;31.15;18.65;;;10.10;99.90;;;;;;5106730;28;20099;-79
2024/02/18 02:23:25;;;;;;;28.90;17.40;;;10.10;99.90;;;;;;5106364;28;20040;-79
2024/02/18 02:25:51;;;;;;;31.08;18.15;;;10.00;99.90;;;;;;5105970;28;20061;-79
2024/02/18 02:28:23;;;;;;;32.53;18.60;;;10.20;99.90;;;;;;5104603;28;20123;-80
2024/02/18 02:30:49;;;;;;;28.50;18.15;;;10.00;99.90;;;;;;5104913;28;20048;-80
2024/02/18 02:33:16;;;;;;;26.92;17.13;;;10.00;99.90;;;;;;5104577;28;20043;-80
2024/02/18 02:35:43;;;;;;;28.70;17.23;;;10.20;99.90;;;;;;5103764;28;20036;-80
2024/02/18 02:38:09;;;;;;;27.52;17.02;;;10.20;99.90;;;;;;5103478;28;20058;-80
2024/02/18 02:40:34;;;;;;;30.13;17.75;;;10.20;99.90;;;;;;5103425;28;20036;-80
2024/02/18 02:43:01;;;;;;;28.17;16.63;;;10.20;99.90;;;;;;5102947;28;20048;-79
2024/02/18 02:45:27;;;;;;;30.67;16.88;;;10.10;99.90;;;;;;5103044;28;20047;-79
2024/02/18 02:47:53;;;;;;;27.77;16.23;;;10.20;99.90;;;;;;5102851;28;20040;-80
2024/02/18 02:50:19;;;;;;;25.95;16.80;;;10.10;99.90;;;;;;5100785;28;20108;-79
2024/02/18 02:52:45;;;;;;;25.27;14.68;;;10.10;99.90;;;;;;5104061;28;20039;-79
2024/02/18 02:55:11;;;;;;;34.78;17.23;;;10.20;99.90;;;;;;5102626;28;20063;-80
2024/02/18 02:57:37;;;;;;;26.50;15.32;;;10.10;99.90;;;;;;5088207;28;20043;-80
2024/02/18 03:00:13;;;;;;;26.45;14.55;;;10.10;99.90;;;;;;5105889;28;20032;-80
2024/02/18 03:02:39;;;;;;;28.13;15.95;;;10.00;99.90;;;;;;5106619;28;20039;-80
2024/02/18 03:05:06;;;;;;;23.45;15.57;;;10.00;99.90;;;;;;5106170;28;20040;-80
2024/02/18 03:07:32;;;;;;;22.92;14.10;;;10.10;99.90;;;;;;5105719;28;20036;-80
2024/02/18 03:09:57;;;;;;;26.77;15.18;;;10.20;99.90;;;;;;5105357;28;20032;-79
2024/02/18 03:12:23;;;;;;;22.27;13.93;;;10.10;99.90;;;;;;5106685;28;20061;-79
2024/02/18 03:14:49;;;;;;;24.25;14.52;;;10.00;99.90;;;;;;5104324;28;20068;-79
2024/02/18 03:17:15;;;;;;;24.75;12.52;;;10.10;99.90;;;;;;5104585;28;20028;-80
2024/02/18 03:19:41;;;;;;;23.10;13.35;;;10.10;99.90;;;;;;5105187;28;20046;-80
2024/02/18 03:22:07;;;;;;;19.38;14.18;;;10.20;99.90;;;;;;5105454;28;20047;-80
2024/02/18 03:24:32;;;;;;;21.77;13.90;;;10.00;99.90;;;;;;5104919;28;20047;-80
2024/02/18 03:26:59;;;;;;;21.08;12.98;;;10.10;99.90;;;;;;5105642;28;20047;-80
2024/02/18 03:29:25;;;;;;;30.83;14.48;;;10.10;99.90;;;;;;5105437;28;20051;-80
2024/02/18 03:31:53;;;;;;;19.73;12.80;;;10.10;99.90;;;;;;5106415;28;20168;-80
2024/02/18 03:34:21;;;;;;;28.38;13.43;;;10.20;99.90;;;;;;5105573;28;20072;-80
2024/02/18 03:36:47;;;;;;;19.60;11.63;;;10.10;99.90;;;;;;5104619;28;20043;-80
2024/02/18 03:39:12;;;;;;;22.00;12.25;;;10.10;99.90;;;;;;5103775;28;20036;-80
2024/02/18 03:41:38;;;;;;;22.15;11.93;;;10.20;99.90;;;;;;5103673;28;20032;-80
2024/02/18 03:44:04;;;;;;;22.55;12.30;;;10.10;99.90;;;;;;5103309;28;20411;-80
2024/02/18 03:46:29;;;;;;;22.02;12.55;;;10.20;99.90;;;;;;5103009;28;20058;-80
2024/02/18 03:48:55;;;;;;;23.20;12.27;;;10.20;99.90;;;;;;5103922;28;20039;-80
2024/02/18 03:51:21;;;;;;;22.65;12.32;;;10.20;99.90;;;;;;5103179;28;20047;-80
2024/02/18 03:53:46;;;;;;;21.85;10.98;;;10.20;99.90;;;;;;5102500;28;20048;-80
2024/02/18 03:56:12;;;;;;;21.77;12.13;;;10.20;99.90;;;;;;5102068;28;20036;-80
2024/02/18 03:58:37;;;;;;;18.85;11.38;;;10.10;99.90;;;;;;5103567;28;20032;-80
2024/02/18 04:01:03;;;;;;;30.60;11.65;;;10.10;99.90;;;;;;5101883;28;20051;-80
2024/02/18 04:03:29;;;;;;;19.23;10.52;;;10.20;99.90;;;;;;5103455;28;20050;-80
2024/02/18 04:05:54;;;;;;;18.00;9.95;;;10.10;99.90;;;;;;5102356;28;20043;-80
2024/02/18 04:08:20;;;;;;;21.30;11.32;;;10.10;99.90;;;;;;5102763;28;20040;-80
2024/02/18 04:10:46;;;;;;;19.83;11.25;;;10.10;99.90;;;;;;5103151;28;20040;-80
2024/02/18 04:13:11;;;;;;;23.00;10.70;;;10.10;99.90;;;;;;5102642;28;20032;-80
2024/02/18 04:15:37;;;;;;;17.17;9.98;;;10.20;99.90;;;;;;5102918;28;20036;-80
2024/02/18 04:18:03;;;;;;;22.55;10.25;;;10.00;99.90;;;;;;5102297;28;20039;-80
2024/02/18 04:20:28;;;;;;;20.50;9.98;;;10.10;99.90;;;;;;5105256;28;20036;-79
2024/02/18 04:22:54;;;;;;;16.65;8.38;;;10.10;99.90;;;;;;5104127;28;20091;-80
2024/02/18 04:25:20;;;;;;;19.63;10.32;;;10.00;99.90;;;;;;5103172;28;20040;-80
2024/02/18 04:27:45;;;;;;;16.38;8.60;;;10.00;99.90;;;;;;5102479;28;20075;-80
2024/02/18 04:30:11;;;;;;;16.35;9.05;;;10.00;99.90;;;;;;5102172;28;20036;-80
2024/02/18 04:32:37;;;;;;;17.65;8.25;;;10.00;99.90;;;;;;5102731;28;20040;-80
2024/02/18 04:35:03;;;;;;;16.88;9.48;;;10.00;99.90;;;;;;5101514;28;20119;-79
2024/02/18 04:37:29;;;;;;;15.50;8.55;;;10.10;99.90;;;;;;5100448;28;20520;-79
2024/02/18 04:39:55;;;;;;;13.63;7.97;;;10.00;99.90;;;;;;5100263;28;20064;-79
2024/02/18 04:42:21;;;;;;;15.95;8.15;;;10.20;99.90;;;;;;5084195;28;20036;-80
2024/02/18 04:44:47;;;;;;;16.23;7.45;;;10.20;99.90;;;;;;5102067;28;20043;-79
2024/02/18 04:47:12;;;;;;;14.50;7.65;;;10.00;99.90;;;;;;5100931;28;20044;-79
2024/02/18 04:49:38;;;;;;;14.02;7.45;;;10.10;99.90;;;;;;5099675;28;20040;-79
2024/02/18 04:52:05;;;;;;;17.35;7.68;;;10.10;99.90;;;;;;5102575;28;20032;-79
2024/02/18 04:54:30;;;;;;;14.82;7.38;;;10.10;99.90;;;;;;5099787;28;20096;-79
2024/02/18 04:56:56;;;;;;;15.65;7.28;;;10.00;99.90;;;;;;5100919;28;20105;-79
2024/02/18 04:59:22;;;;;;;15.00;6.68;;;10.20;99.90;;;;;;5098911;28;20568;-79
2024/02/18 05:01:47;;;;;;;13.88;6.88;;;10.00;99.90;;;;;;5100733;28;20048;-79
2024/02/18 05:04:13;;;;;;;12.68;6.40;;;10.10;99.90;;;;;;5100040;28;20423;-79
2024/02/18 05:06:48;;;;;;;13.77;6.38;;;10.10;99.90;;;;;;5103134;28;20092;-79
2024/02/18 05:09:14;;;;;;;15.02;6.47;;;10.00;99.90;;;;;;5103824;28;20048;-79
2024/02/18 05:11:40;;;;;;;11.63;6.18;;;10.00;99.90;;;;;;5086408;28;20044;-79
2024/02/18 05:14:06;;;;;;;15.45;6.53;;;10.20;99.90;;;;;;5086142;28;20046;-79
2024/02/18 05:16:32;;;;;;;11.60;6.53;;;10.10;99.90;;;;;;5104365;28;20040;-79
2024/02/18 05:18:57;;;;;;;13.50;7.28;;;10.00;99.90;;;;;;5103959;28;20502;-79
2024/02/18 05:21:23;;;;;;;13.05;4.93;;;10.10;99.90;;;;;;5103914;28;20063;-78
2024/02/18 05:23:51;;;;;;;10.48;6.18;;;10.00;99.90;;;;;;5103930;28;20096;-79
2024/02/18 05:26:17;;;;;;;7.03;5.10;;;10.10;99.90;;;;;;5104939;28;20095;-79
2024/02/18 05:28:43;;;;;;;11.18;4.95;;;10.00;99.90;;;;;;5103763;28;20044;-79
2024/02/18 05:31:29;;;;;;;7.93;4.80;;;10.10;99.90;;;;;;5102053;28;20040;-80
2024/02/18 05:33:55;;;;;;;13.68;5.85;;;10.10;99.90;;;;;;5103365;28;20393;-79
2024/02/18 05:36:20;;;;;;;10.35;5.20;;;10.10;99.90;;;;;;5087634;28;20058;-79
2024/02/18 05:38:46;;;;;;;8.00;4.63;;;10.00;99.90;;;;;;5104415;28;20036;-79
2024/02/18 05:41:12;;;;;;;6.88;4.43;;;10.00;99.90;;;;;;5103145;28;20040;-80
2024/02/18 05:43:38;;;;;;;8.65;4.68;;;10.10;99.90;;;;;;5104568;28;20036;-79
2024/02/18 05:46:06;;;;;;;12.15;4.55;;;10.00;99.90;;;;;;5104520;28;20032;-79
2024/02/18 05:48:31;;;;;;;11.52;6.30;;;10.10;99.90;;;;;;5102067;28;20487;-80
2024/02/18 05:50:57;;;;;;;10.52;5.05;;;10.10;99.90;;;;;;5102428;28;20043;-79
2024/02/18 05:53:24;;;;;;;9.23;4.18;;;10.00;99.90;;;;;;5102385;28;20032;-79
2024/02/18 05:55:49;;;;;;;10.07;4.38;;;10.10;99.90;;;;;;5103937;28;20488;-79
2024/02/18 05:58:16;;;;;;;11.25;4.22;;;10.00;99.90;;;;;;5103924;28;20088;-80
2024/02/18 06:00:41;;;;;;;8.60;4.40;;;10.10;99.90;;;;;;5102695;28;20047;-80
2024/02/18 06:03:07;;;;;;;11.23;4.40;;;9.90;99.90;;;;;;5103917;28;20032;-79
2024/02/18 06:05:33;;;;;;;14.15;6.03;;;10.00;99.90;;;;;;5085604;28;20392;-79
2024/02/18 06:07:58;;;;;;;11.43;4.80;;;10.00;99.90;;;;;;5103264;28;20093;-79
2024/02/18 06:10:24;;;;;;;8.40;5.03;;;9.90;99.90;;;;;;5102850;28;20032;-79
2024/02/18 06:12:50;;;;;;;11.63;5.13;;;10.10;99.90;;;;;;5102628;28;20077;-79
2024/02/18 06:15:16;;;;;;;14.02;5.05;;;9.90;99.90;;;;;;5100326;28;20077;-79
2024/02/18 06:17:41;;;;;;;6.43;4.93;;;10.00;99.90;;;;;;5100411;28;20032;-79
2024/02/18 06:20:13;;;;;;;7.82;4.78;;;9.90;99.90;;;;;;5101730;28;20044;-79
2024/02/18 06:22:39;;;;;;;13.45;4.20;;;10.00;99.90;;;;;;5102223;28;20488;-79
2024/02/18 06:25:05;;;;;;;9.52;4.65;;;9.90;99.90;;;;;;5104499;28;20064;-79
2024/02/18 06:27:31;;;;;;;7.72;3.88;;;10.00;99.90;;;;;;5100828;28;20115;-79
2024/02/18 06:29:58;;;;;;;9.52;4.10;;;10.00;99.90;;;;;;5100887;28;20071;-79
2024/02/18 06:32:25;;;;;;;8.45;4.18;;;9.90;99.90;;;;;;5102602;28;20416;-79
2024/02/18 06:34:50;;;;;;;9.98;5.40;;;9.90;99.90;;;;;;5102431;28;20044;-79
2024/02/18 06:37:16;;;;;;;9.52;4.18;;;9.90;99.90;;;;;;5102958;28;20119;-79
2024/02/18 06:39:42;;;;;;;9.38;4.50;;;9.90;99.90;;;;;;5101440;28;20119;-79
2024/02/18 06:42:08;;;;;;;9.32;5.25;;;9.80;99.90;;;;;;5101796;28;20032;-79
2024/02/18 06:44:34;;;;;;;11.50;4.40;;;9.80;99.90;;;;;;5104407;28;20036;-79
2024/02/18 06:46:59;;;;;;;9.75;3.80;;;9.80;99.90;;;;;;5103887;28;20040;-79
2024/02/18 06:49:25;;;;;;;10.68;4.45;;;9.80;99.90;;;;;;5103485;28;20507;-79
2024/02/18 06:51:51;;;;;;;8.38;4.90;;;9.90;99.90;;;;;;5101887;28;20514;-79
2024/02/18 06:54:17;;;;;;;11.80;4.40;;;9.70;99.90;;;;;;5084712;28;20032;-79
2024/02/18 06:56:42;;;;;;;9.57;5.65;;;9.80;99.90;;;;;;5102923;28;20104;-79
2024/02/18 06:59:08;;;;;;;12.55;4.50;;;9.80;99.90;;;;;;5101999;28;20040;-79
2024/02/18 07:01:33;;;;;;;10.18;4.90;;;9.90;99.90;;;;;;5102598;28;20032;-79
2024/02/18 07:04:00;;;;;;;10.35;4.78;;;9.90;99.90;;;;;;5085212;28;20551;-79
2024/02/18 07:06:25;;;;;;;8.38;4.95;;;9.90;99.90;;;;;;5102326;28;20040;-79
2024/02/18 07:08:51;;;;;;;13.98;4.78;;;9.90;99.90;;;;;;5101943;28;20058;-79
2024/02/18 07:11:17;;;;;;;8.80;5.15;;;9.80;99.90;;;;;;5101698;28;20066;-79
2024/02/18 07:13:43;;;;;;;10.88;5.20;;;9.90;99.90;;;;;;5100800;28;20123;-79
2024/02/18 07:16:09;;;;;;;10.18;5.00;;;9.80;99.90;;;;;;5100849;28;20032;-79
2024/02/18 07:18:35;;;;;;;9.55;5.03;;;9.90;99.90;;;;;;5102066;28;20040;-79
2024/02/18 07:21:01;;;;;;;10.88;4.93;;;9.80;99.90;;;;;;5103111;28;20040;-79
2024/02/18 07:23:26;;;;;;;15.40;5.13;;;9.80;99.90;;;;;;5101119;28;20036;-79
2024/02/18 07:25:53;;;;;;;11.15;5.20;;;9.90;99.90;;;;;;5101644;28;20113;-79
2024/02/18 07:28:19;;;;;;;8.68;4.93;;;9.80;99.90;;;;;;5103044;28;20058;-79
2024/02/18 07:30:44;;;;;;;12.50;6.13;;;9.90;99.90;;;;;;5098571;28;20048;-79
2024/02/18 07:33:11;;;;;;;11.35;6.18;;;9.80;99.90;;;;;;5100965;28;20035;-79
2024/02/18 07:35:36;;;;;;;17.63;6.05;;;9.90;99.90;;;;;;5100703;28;20040;-79
2024/02/18 07:38:02;;;;;;;10.98;5.57;;;10.00;99.90;;;;;;5100916;28;20561;-79
2024/02/18 07:40:28;;;;;;;11.90;5.30;;;10.00;99.90;;;;;;5100457;28;20036;-79
2024/02/18 07:42:53;;;;;;;14.25;5.25;;;9.90;99.90;;;;;;5099790;28;20069;-79
2024/02/18 07:45:19;;;;;;;11.90;4.90;;;10.00;99.90;;;;;;5099488;28;20031;-79
2024/02/18 07:47:45;;;;;;;15.13;5.13;;;9.80;99.90;;;;;;5099126;28;20089;-79
2024/02/18 07:50:11;;;;;;;9.88;5.40;;;9.90;99.90;;;;;;5101546;28;20048;-79
2024/02/18 07:52:36;;;;;;;13.90;6.97;;;9.90;99.90;;;;;;5093999;28;20044;-79
2024/02/18 07:55:02;;;;;;;11.88;5.50;;;9.90;99.90;;;;;;5090707;28;20036;-79
2024/02/18 07:57:28;;;;;;;11.48;6.13;;;9.90;99.90;;;;;;5099528;28;20036;-79
2024/02/18 07:59:54;;;;;;;9.93;5.65;;;9.80;99.90;;;;;;5093404;28;20040;-78
2024/02/18 08:02:21;;;;;;;8.80;5.75;;;9.90;99.90;;;;;;5092257;28;20032;-78
2024/02/18 08:04:46;;;;;;;11.35;5.15;;;9.80;99.90;;;;;;5074974;28;20044;-77
2024/02/18 08:07:12;;;;;;;9.80;5.32;;;10.00;99.90;;;;;;5090947;28;20062;-77
2024/02/18 08:09:38;;;;;;;11.88;6.05;;;9.80;99.90;;;;;;5092112;28;20038;-77
2024/02/18 08:12:03;;;;;;;10.60;6.68;;;10.00;99.90;;;;;;5091898;28;20031;-78
2024/02/18 08:14:29;;;;;;;12.00;5.85;;;9.90;99.90;;;;;;5082903;28;20098;-77
2024/02/18 08:16:56;;;;;;;11.32;5.05;;;10.00;99.90;;;;;;5089888;28;20067;-77
2024/02/18 08:19:22;;;;;;;14.35;5.38;;;9.80;99.90;;;;;;5088884;28;20048;-77
2024/02/18 08:21:47;;;;;;;13.35;6.30;;;9.90;99.90;;;;;;5092228;28;20032;-77
2024/02/18 08:24:14;;;;;;;12.98;5.25;;;9.80;99.90;;;;;;5092062;28;20044;-77
2024/02/18 08:26:40;;;;;;;19.13;7.35;;;10.00;99.90;;;;;;5088695;28;20048;-77
2024/02/18 08:29:07;;;;;;;16.23;6.13;;;9.90;99.90;;;;;;5091535;28;20065;-77
2024/02/18 08:31:33;;;;;;;10.45;5.28;;;9.90;99.90;;;;;;5093364;28;20051;-78
2024/02/18 08:34:00;;;;;;;10.65;5.63;;;10.00;99.90;;;;;;5091877;28;20036;-77
2024/02/18 08:36:26;;;;;;;14.82;5.75;;;10.00;99.90;;;;;;5090523;28;20380;-77
2024/02/18 08:38:51;;;;;;;11.95;6.07;;;10.00;99.90;;;;;;5094419;28;20032;-78
2024/02/18 08:41:17;;;;;;;10.63;5.63;;;9.80;99.90;;;;;;5092345;28;20032;-77
2024/02/18 08:43:43;;;;;;;11.73;5.47;;;9.90;99.90;;;;;;5096492;28;20036;-78
2024/02/18 08:46:09;;;;;;;11.10;6.38;;;10.00;99.90;;;;;;5096799;28;20110;-77
2024/02/18 08:48:37;;;;;;;9.93;5.13;;;9.90;99.90;;;;;;5097719;28;20040;-78
2024/02/18 08:51:03;;;;;;;8.95;5.05;;;10.10;99.90;;;;;;5095882;28;20047;-77
2024/02/18 08:53:28;;;;;;;9.10;5.65;;;9.90;99.90;;;;;;5080530;28;20028;-77
2024/02/18 08:55:54;;;;;;;15.15;6.07;;;10.00;99.90;;;;;;5091115;28;20036;-78
2024/02/18 08:58:20;;;;;;;15.20;5.22;;;9.80;99.90;;;;;;5089413;28;20036;-77
2024/02/18 09:00:47;;;;;;;12.05;5.40;;;9.90;99.90;;;;;;5080299;28;20040;-77
2024/02/18 09:03:13;;;;;;;7.50;5.40;;;10.00;99.90;;;;;;5091726;28;20037;-76
2024/02/18 09:05:40;;;;;;;8.32;5.07;;;9.80;99.90;;;;;;5082718;28;20036;-77
2024/02/18 09:08:07;;;;;;;9.88;4.47;;;10.00;99.90;;;;;;5094457;28;20052;-78
2024/02/18 09:10:33;;;;;;;11.80;4.82;;;9.90;99.90;;;;;;5093818;28;20119;-78
2024/02/18 09:13:01;;;;;;;8.82;5.05;;;9.80;99.90;;;;;;5093800;28;20110;-76
2024/02/18 09:15:30;;;;;;;10.35;4.40;;;9.80;99.90;;;;;;5095403;28;20397;-76
2024/02/18 09:17:56;;;;;;;13.00;6.47;;;9.80;99.90;;;;;;5083740;28;20036;-77
2024/02/18 09:20:23;;;;;;;12.32;4.35;;;10.00;99.90;;;;;;5096167;28;20093;-80
2024/02/18 09:22:49;;;;;;;8.68;4.93;;;10.00;99.90;;;;;;5080986;28;20032;-79
2024/02/18 09:25:15;;;;;;;8.75;4.45;;;10.00;99.90;;;;;;5094180;28;20572;-78
2024/02/18 09:27:40;;;;;;;6.65;3.53;;;9.90;99.90;;;;;;5094515;28;20574;-77
2024/02/18 09:30:07;;;;;;;9.93;5.32;;;9.90;99.90;;;;;;5088497;28;20032;-77
2024/02/18 09:32:32;;;;;;;6.70;4.07;;;9.90;99.90;;;;;;5090337;28;20051;-77
2024/02/18 09:34:58;;;;;;;11.75;4.85;;;9.90;99.90;;;;;;5080905;28;20063;-78
2024/02/18 09:37:24;;;;;;;9.93;4.38;;;10.00;99.90;;;;;;5096723;28;20411;-78
2024/02/18 09:39:50;;;;;;;6.28;4.95;;;10.00;99.90;;;;;;5092981;28;20081;-77
2024/02/18 09:42:16;;;;;;;12.43;4.47;;;10.10;99.90;;;;;;5094268;28;20036;-77
2024/02/18 09:44:45;;;;;;;9.20;5.05;;;10.30;99.90;;;;;;5096259;28;20036;-78
2024/02/18 09:47:14;;;;;;;7.57;3.95;;;10.30;99.90;;;;;;5098088;28;20105;-76
2024/02/18 09:49:39;;;;;;;8.52;4.22;;;10.30;99.90;;;;;;5076319;28;20047;-77
2024/02/18 09:52:06;;;;;;;7.05;3.95;;;10.30;99.90;;;;;;5092805;28;20040;-78
2024/02/18 09:54:34;;;;;;;6.25;3.83;;;10.30;99.90;;;;;;5093158;28;20040;-78
2024/02/18 09:57:00;;;;;;;8.02;3.70;;;10.20;99.90;;;;;;5092719;28;20035;-77
2024/02/18 09:59:26;;;;;;;8.05;4.13;;;10.10;99.90;;;;;;5095887;28;20115;-77
2024/02/18 10:01:56;;;;;;;7.63;3.67;;;10.30;99.90;;;;;;5083525;28;20093;-78
2024/02/18 10:04:23;;;;;;;8.10;3.75;;;10.30;99.90;;;;;;5092813;28;20040;-77
2024/02/18 10:06:48;;;;;;;5.22;2.95;;;10.20;99.90;;;;;;5092962;28;20040;-77
2024/02/18 10:09:14;;;;;;;6.47;3.88;;;10.20;99.90;;;;;;5094024;28;20487;-78
2024/02/18 10:11:39;;;;;;;8.77;3.88;;;10.40;99.90;;;;;;5073816;28;20055;-79
2024/02/18 10:14:06;;;;;;;7.55;3.80;;;10.30;99.90;;;;;;5087548;28;20037;-79
2024/02/18 10:16:32;;;;;;;6.78;3.35;;;10.40;99.90;;;;;;5107927;28;20036;-80
2024/02/18 10:19:01;;;;;;;7.43;3.53;;;10.40;99.90;;;;;;5099270;28;20050;-78
2024/02/18 10:21:27;;;;;;;11.25;3.03;;;10.40;99.90;;;;;;5086289;28;20082;-77
2024/02/18 10:23:53;;;;;;;6.78;3.22;;;10.30;99.90;;;;;;5091064;28;20040;-77
2024/02/18 10:26:19;;;;;;;4.43;3.42;;;10.20;99.90;;;;;;5084571;28;20067;-77
2024/02/18 10:28:46;;;;;;;7.88;3.45;;;10.30;99.90;;;;;;5096848;28;20089;-78
2024/02/18 10:31:12;;;;;;;5.70;2.78;;;10.30;99.90;;;;;;5095942;28;20040;-78
2024/02/18 10:33:38;;;;;;;4.40;3.45;;;10.20;99.90;;;;;;5097683;28;20054;-77
2024/02/18 10:36:09;;;;;;;6.80;3.03;;;10.40;99.90;;;;;;5098745;28;20131;-79
2024/02/18 10:38:42;;;;;;;5.85;3.10;;;10.30;99.90;;;;;;5099385;28;20040;-78
2024/02/18 10:41:17;;;;;;;6.40;2.88;;;10.30;99.90;;;;;;5101155;28;20111;-79
2024/02/18 10:43:50;;;;;;;5.03;3.15;;;10.30;99.90;;;;;;5096755;28;20036;-79
2024/02/18 10:46:20;;;;;;;4.13;2.47;;;10.30;99.90;;;;;;5095305;28;20040;-79
2024/02/18 10:48:52;;;;;;;7.25;3.03;;;10.30;99.90;;;;;;5096555;28;20063;-80
2024/02/18 10:51:29;;;;;;;4.55;2.88;;;10.40;99.90;;;;;;5096255;28;20051;-77
2024/02/18 10:54:08;;;;;;;3.05;2.00;;;10.20;99.90;;;;;;5096314;28;20517;-79
2024/02/18 10:56:34;;;;;;;5.13;2.92;;;10.20;99.90;;;;;;5101378;28;20072;-79
2024/02/18 10:59:18;;;;;;;6.03;3.20;;;10.20;99.90;;;;;;5095771;28;20101;-78
2024/02/18 11:01:55;;;;;;;5.03;3.53;;;10.30;99.90;;;;;;5097159;28;20511;-79
2024/02/18 11:04:21;;;;;;;5.10;3.17;;;10.20;99.90;;;;;;5097587;28;20062;-79
2024/02/18 11:06:48;;;;;;;4.45;3.00;;;10.40;99.90;;;;;;5094932;28;20078;-79
2024/02/18 11:09:17;;;;;;;5.75;2.72;;;10.30;99.90;;;;;;5078054;28;20040;-79
2024/02/18 11:11:43;;;;;;;5.45;2.88;;;10.10;99.90;;;;;;5076964;28;20399;-77
2024/02/18 11:14:12;;;;;;;6.30;3.08;;;10.30;99.90;;;;;;5083483;28;20036;-78
2024/02/18 11:16:39;;;;;;;7.10;3.60;;;10.10;99.90;;;;;;5075292;28;20169;-78
2024/02/18 11:19:06;;;;;;;3.95;2.55;;;10.10;99.90;;;;;;5074566;28;20085;-77
2024/02/18 11:21:32;;;;;;;3.60;2.85;;;10.00;99.90;;;;;;5091062;28;20096;-76
2024/02/18 11:23:59;;;;;;;5.00;3.00;;;10.10;99.90;;;;;;5095421;28;20044;-78
2024/02/18 11:26:25;;;;;;;8.00;3.33;;;10.10;99.90;;;;;;5093537;28;20028;-78
2024/02/18 11:28:51;;;;;;;3.83;2.42;;;10.00;99.90;;;;;;5092507;28;20044;-78
2024/02/18 11:31:35;;;;;;;5.53;3.08;;;10.00;99.90;;;;;;5092007;28;20031;-78
2024/02/18 11:34:01;;;;;;;5.50;2.90;;;10.00;99.90;;;;;;5092578;28;20120;-78
2024/02/18 11:36:27;;;;;;;4.25;2.85;;;10.10;99.90;;;;;;5093362;28;20543;-78
2024/02/18 11:38:55;;;;;;;4.93;3.38;;;10.00;99.90;;;;;;5094751;28;20528;-80
2024/02/18 11:41:32;;;;;;;5.63;3.17;;;10.00;99.90;;;;;;5095195;28;20039;-79
2024/02/18 11:43:59;;;;;;;5.28;3.20;;;10.10;99.90;;;;;;5092028;28;20070;-77
2024/02/18 11:46:29;;;;;;;4.72;2.88;;;10.00;99.90;;;;;;5091278;28;20040;-78
2024/02/18 11:48:56;;;;;;;4.15;3.25;;;9.90;99.90;;;;;;5092256;28;20119;-78
2024/02/18 11:51:22;;;;;;;4.50;3.22;;;9.80;99.90;;;;;;5099388;28;20099;-80
2024/02/18 11:53:49;;;;;;;5.43;3.10;;;10.00;99.90;;;;;;5098175;28;20038;-78
2024/02/18 11:56:15;;;;;;;4.72;3.30;;;10.00;99.90;;;;;;5093320;28;20070;-79
2024/02/18 11:58:46;;;;;;;7.70;3.60;;;9.90;99.90;;;;;;5077169;28;20731;-78
2024/02/18 12:01:12;;;;;;;6.97;3.60;;;9.90;99.90;;;;;;5093825;28;20044;-79
2024/02/18 12:03:39;;;;;;;6.53;2.90;;;9.80;99.90;;;;;;5076028;28;20032;-79
2024/02/18 12:06:06;;;;;;;4.30;2.88;;;9.80;99.90;;;;;;5094230;28;20048;-79
2024/02/18 12:08:32;;;;;;;5.03;3.53;;;10.00;99.90;;;;;;5095929;28;20044;-77
2024/02/18 12:11:03;;;;;;;3.60;3.00;;;9.90;99.90;;;;;;5099744;28;20395;-79
2024/02/18 12:13:30;;;;;;;5.40;3.15;;;9.90;99.90;;;;;;5097232;28;20132;-78
2024/02/18 12:16:04;;;;;;;5.47;2.90;;;9.80;99.90;;;;;;5091854;28;20036;-78
2024/02/18 12:18:29;;;;;;;6.72;3.33;;;9.70;99.90;;;;;;5098582;28;20381;-80
2024/02/18 12:20:55;;;;;;;6.75;3.67;;;9.80;99.90;;;;;;5102859;28;20035;-81
2024/02/18 12:23:22;;;;;;;7.10;3.45;;;9.80;99.90;;;;;;5096718;28;20522;-77
2024/02/18 12:25:48;;;;;;;5.63;3.53;;;9.90;99.90;;;;;;5091664;28;20445;-79
2024/02/18 12:28:14;;;;;;;4.88;2.83;;;9.70;99.90;;;;;;5095483;28;20098;-79
2024/02/18 12:30:41;;;;;;;5.35;3.20;;;9.70;99.90;;;;;;5097048;28;20507;-80
2024/02/18 12:33:07;;;;;;;5.68;3.15;;;9.80;99.90;;;;;;5096825;28;20087;-78
2024/02/18 12:35:36;;;;;;;5.72;3.33;;;9.70;99.90;;;;;;5094377;28;20528;-80
2024/02/18 12:38:05;;;;;;;5.53;3.40;;;9.70;99.90;;;;;;5096275;28;20032;-80